Time;durP1;ratioP1;P1;durP2;ratioP2;P2;SDS_P1;SDS_P2;PMS_P1;PMS_P2;Temp;Humidity;BMP_temperature;BMP_pressure;BME280_temperature;BME280_humidity;BME280_pressure;Samples;Min_cycle;Max_cycle;Signal;HPM_P1;HPM_P2
2021/08/14 00:05:10;;;;;;;11.20;3.20;;;17.40;99.90;;;;;;12534314;28;20333;-85
2021/08/14 00:11:13;;;;;;;12.65;2.75;;;17.30;99.90;;;;;;12541455;28;20131;-84
2021/08/14 00:17:14;;;;;;;14.27;2.78;;;17.20;99.90;;;;;;12531026;28;20708;-84
2021/08/14 00:23:16;;;;;;;12.77;3.17;;;17.00;99.90;;;;;;12536418;28;20060;-84
2021/08/14 00:29:19;;;;;;;10.43;2.45;;;16.80;99.90;;;;;;12541489;28;20241;-84
2021/08/14 00:35:21;;;;;;;12.55;3.35;;;16.60;99.90;;;;;;12540219;28;20094;-84
2021/08/14 00:41:23;;;;;;;10.85;2.55;;;16.60;99.90;;;;;;12542669;28;20099;-84
2021/08/14 00:47:25;;;;;;;10.63;3.05;;;16.60;99.90;;;;;;12548967;28;20129;-84
2021/08/14 00:53:27;;;;;;;15.77;3.10;;;16.50;99.90;;;;;;12564689;28;20086;-84
2021/08/14 00:59:29;;;;;;;16.70;3.30;;;16.40;99.90;;;;;;12548415;28;20453;-84
2021/08/14 01:05:36;;;;;;;8.68;2.78;;;16.30;99.90;;;;;;12539787;28;20140;-84
2021/08/14 01:11:39;;;;;;;9.88;2.05;;;16.30;99.90;;;;;;12538723;28;20049;-84
2021/08/14 01:17:40;;;;;;;17.08;4.20;;;16.40;99.90;;;;;;12538147;28;20466;-84
2021/08/14 01:23:43;;;;;;;15.88;3.30;;;16.60;99.90;;;;;;12552861;28;20045;-84
2021/08/14 01:29:45;;;;;;;14.65;3.25;;;16.60;99.90;;;;;;12537107;28;20057;-84
2021/08/14 01:35:47;;;;;;;8.10;2.88;;;16.80;99.90;;;;;;12538359;28;20124;-84
2021/08/14 01:42:00;;;;;;;11.35;2.55;;;16.70;99.90;;;;;;12537643;28;20041;-85
2021/08/14 01:48:02;;;;;;;8.60;2.33;;;16.70;99.90;;;;;;12532458;28;20662;-84
2021/08/14 01:54:04;;;;;;;10.77;2.90;;;16.90;99.90;;;;;;12532672;28;20518;-83
2021/08/14 02:00:07;;;;;;;9.90;2.75;;;16.40;99.90;;;;;;12545069;28;20053;-84
2021/08/14 02:06:09;;;;;;;9.30;2.83;;;16.20;99.90;;;;;;12536722;28;20076;-84
2021/08/14 02:12:11;;;;;;;6.85;2.25;;;16.30;99.90;;;;;;12501701;28;20058;-84
2021/08/14 02:18:12;;;;;;;10.52;2.88;;;16.20;99.90;;;;;;12473633;28;20084;-84
2021/08/14 02:24:14;;;;;;;8.15;2.53;;;16.10;99.90;;;;;;12479710;28;20180;-84
2021/08/14 02:30:16;;;;;;;9.10;2.65;;;15.90;99.90;;;;;;12479113;28;20049;-84
2021/08/14 02:36:19;;;;;;;9.30;2.75;;;15.80;99.90;;;;;;12494207;28;20046;-85
2021/08/14 02:42:20;;;;;;;10.95;2.80;;;15.70;99.90;;;;;;12482522;28;20180;-84
2021/08/14 02:48:22;;;;;;;9.10;2.85;;;15.70;99.90;;;;;;12472002;28;20108;-85
2021/08/14 02:54:24;;;;;;;8.48;2.72;;;15.80;99.90;;;;;;12472401;28;20041;-84
2021/08/14 03:00:26;;;;;;;10.27;3.40;;;15.90;99.90;;;;;;12488333;28;20134;-85
2021/08/14 03:06:28;;;;;;;11.95;2.70;;;16.00;99.90;;;;;;12488897;28;20058;-85
2021/08/14 03:12:30;;;;;;;11.70;3.55;;;15.80;99.90;;;;;;12531396;28;20068;-84
2021/08/14 03:18:32;;;;;;;8.88;3.47;;;15.50;99.90;;;;;;12543243;28;20394;-84
2021/08/14 03:24:33;;;;;;;12.13;3.60;;;15.50;99.90;;;;;;12548457;28;20190;-84
2021/08/14 03:30:35;;;;;;;10.95;3.55;;;15.40;99.90;;;;;;12544035;28;20519;-84
2021/08/14 03:36:37;;;;;;;11.20;3.55;;;15.50;99.90;;;;;;12538454;28;20052;-84
2021/08/14 03:42:39;;;;;;;9.18;3.40;;;15.50;99.90;;;;;;12545419;28;20045;-84
2021/08/14 03:48:41;;;;;;;9.45;3.47;;;15.70;99.90;;;;;;12542064;28;20079;-84
2021/08/14 03:54:43;;;;;;;10.52;3.80;;;15.70;99.90;;;;;;12528563;28;20099;-84
2021/08/14 04:00:45;;;;;;;10.60;3.70;;;15.80;99.90;;;;;;12540745;28;20429;-85
2021/08/14 04:06:47;;;;;;;11.57;3.67;;;15.70;99.90;;;;;;12565091;28;20063;-84
2021/08/14 04:12:50;;;;;;;16.83;3.97;;;15.60;99.90;;;;;;12548529;28;20045;-84
2021/08/14 04:18:52;;;;;;;11.45;3.55;;;15.60;99.90;;;;;;12541824;28;20074;-83
2021/08/14 04:24:54;;;;;;;9.50;4.15;;;15.60;99.90;;;;;;12539361;28;20048;-84
2021/08/14 04:30:56;;;;;;;10.70;3.90;;;15.40;99.90;;;;;;12547825;28;20072;-84
2021/08/14 04:36:58;;;;;;;17.98;3.33;;;15.70;99.90;;;;;;12549512;28;20108;-84
2021/08/14 04:42:59;;;;;;;10.10;3.88;;;15.70;99.90;;;;;;12551160;28;20509;-84
2021/08/14 04:49:01;;;;;;;12.75;4.28;;;15.80;99.90;;;;;;12549150;28;20094;-83
2021/08/14 04:55:04;;;;;;;8.52;3.45;;;15.60;99.90;;;;;;12550161;28;20042;-84
2021/08/14 05:01:05;;;;;;;15.75;4.68;;;15.80;99.90;;;;;;12547095;28;20064;-84
2021/08/14 05:07:08;;;;;;;10.27;3.83;;;15.80;99.90;;;;;;12550722;28;20472;-84
2021/08/14 05:13:10;;;;;;;10.10;3.40;;;15.80;99.90;;;;;;12547958;28;20053;-84
2021/08/14 05:19:12;;;;;;;9.40;3.80;;;15.90;99.90;;;;;;12570054;28;20140;-84
2021/08/14 05:25:13;;;;;;;12.40;3.70;;;15.90;99.90;;;;;;12550240;28;20048;-84
2021/08/14 05:31:15;;;;;;;9.63;3.60;;;16.00;99.90;;;;;;12546283;28;20569;-84
2021/08/14 05:37:17;;;;;;;10.00;3.33;;;15.90;99.90;;;;;;12545611;28;20468;-83
2021/08/14 05:43:19;;;;;;;12.07;4.13;;;16.20;99.90;;;;;;12552805;28;20133;-84
2021/08/14 05:49:21;;;;;;;11.07;3.42;;;16.30;99.90;;;;;;12546173;28;20124;-84
2021/08/14 05:55:23;;;;;;;13.80;3.65;;;16.10;99.90;;;;;;12550066;28;20083;-85
2021/08/14 06:01:25;;;;;;;11.30;2.88;;;16.70;99.90;;;;;;12548409;28;20127;-84
2021/08/14 06:07:26;;;;;;;9.88;2.78;;;16.80;99.90;;;;;;12547707;28;20061;-85
2021/08/14 06:13:28;;;;;;;7.78;2.55;;;17.00;99.90;;;;;;12551086;28;20646;-84
2021/08/14 06:19:31;;;;;;;11.23;3.08;;;17.10;99.90;;;;;;12552041;28;20075;-84
2021/08/14 06:25:33;;;;;;;19.08;3.20;;;17.20;99.90;;;;;;12546103;28;20049;-85
2021/08/14 06:31:35;;;;;;;14.88;3.45;;;17.50;99.90;;;;;;12550765;28;20126;-84
2021/08/14 06:37:44;;;;;;;9.77;2.70;;;17.80;99.90;;;;;;12555472;28;20492;-84
2021/08/14 06:43:46;;;;;;;13.18;3.05;;;18.00;99.90;;;;;;12551684;28;20053;-84
2021/08/14 06:49:48;;;;;;;13.15;3.25;;;17.90;99.90;;;;;;12552137;28;20470;-84
2021/08/14 06:55:50;;;;;;;7.70;2.70;;;17.90;99.90;;;;;;12548611;28;20476;-84
2021/08/14 07:01:51;;;;;;;11.73;3.00;;;18.00;99.90;;;;;;12549672;28;20060;-85
2021/08/14 07:07:54;;;;;;;10.63;2.88;;;18.10;99.90;;;;;;12551567;28;20139;-85
2021/08/14 07:13:55;;;;;;;11.25;3.53;;;18.00;99.90;;;;;;12552789;28;20522;-84
2021/08/14 07:19:57;;;;;;;12.40;3.38;;;18.00;99.90;;;;;;12578249;28;20093;-84
2021/08/14 07:26:00;;;;;;;8.40;2.95;;;18.10;99.90;;;;;;12534331;28;20069;-85
2021/08/14 07:32:02;;;;;;;8.05;2.85;;;18.20;99.90;;;;;;12538219;28;20044;-84
2021/08/14 07:38:03;;;;;;;11.75;3.15;;;18.30;99.90;;;;;;12554346;28;20631;-84
2021/08/14 07:44:05;;;;;;;14.05;3.88;;;18.40;99.90;;;;;;12547030;28;20064;-85
2021/08/14 07:50:22;;;;;;;8.38;3.80;;;18.70;99.90;;;;;;12557085;28;20059;-85
2021/08/14 07:56:24;;;;;;;12.73;4.45;;;19.00;99.90;;;;;;12561415;28;20187;-84
2021/08/14 08:02:26;;;;;;;10.73;4.95;;;19.20;99.90;;;;;;12545601;28;20037;-85
2021/08/14 08:08:28;;;;;;;13.40;5.25;;;19.50;99.90;;;;;;12555932;28;20065;-85
2021/08/14 08:14:30;;;;;;;10.63;4.50;;;19.70;99.90;;;;;;12553456;28;20072;-84
2021/08/14 08:20:31;;;;;;;14.63;6.30;;;20.00;99.90;;;;;;12559319;28;20811;-83
2021/08/14 08:26:33;;;;;;;13.02;6.20;;;20.00;99.90;;;;;;12556913;28;20049;-86
2021/08/14 08:32:36;;;;;;;15.95;6.80;;;20.20;99.90;;;;;;12565692;28;20087;-85
2021/08/14 08:38:40;;;;;;;13.90;5.57;;;20.20;99.90;;;;;;12551852;28;20049;-85
2021/08/14 08:44:43;;;;;;;13.35;5.30;;;20.60;99.90;;;;;;12555820;28;20041;-85
2021/08/14 08:50:46;;;;;;;14.88;6.07;;;20.80;99.90;;;;;;12537719;28;20082;-86
2021/08/14 08:56:49;;;;;;;;;;;20.90;99.90;;;;;;12567756;28;20041;-84
2021/08/14 09:03:12;;;;;;;13.38;4.50;;;21.00;99.90;;;;;;12552742;28;19925;-86
2021/08/14 09:09:14;;;;;;;9.25;3.95;;;21.00;99.90;;;;;;12555575;28;20061;-85
2021/08/14 09:15:31;;;;;;;10.77;4.53;;;21.20;99.90;;;;;;12566078;28;20098;-85
2021/08/14 09:21:35;;;;;;;8.15;3.40;;;21.50;99.90;;;;;;12551891;28;20049;-85
2021/08/14 09:27:56;;;;;;;12.55;3.88;;;21.70;99.90;;;;;;12572104;28;20084;-86
2021/08/14 09:34:15;;;;;;;10.55;4.47;;;21.70;99.90;;;;;;12546848;28;20097;-86
2021/08/14 09:40:17;;;;;;;12.73;4.10;;;21.80;99.90;;;;;;12554977;28;20068;-84
2021/08/14 09:46:19;;;;;;;8.77;3.83;;;21.90;99.90;;;;;;12549548;28;20053;-84
2021/08/14 09:52:24;;;;;;;8.93;3.70;;;22.20;99.90;;;;;;12545263;28;20048;-84
2021/08/14 09:58:26;;;;;;;8.50;3.30;;;22.50;99.90;;;;;;12561539;28;20506;-85
2021/08/14 10:04:28;;;;;;;11.93;3.17;;;22.70;99.90;;;;;;12552603;28;20111;-85
2021/08/14 10:10:31;;;;;;;7.95;2.95;;;22.80;99.90;;;;;;12552349;28;20124;-86
2021/08/14 10:16:35;;;;;;;;;;;23.20;99.90;;;;;;12553515;28;20049;-85
2021/08/14 10:22:37;;;;;;;5.88;2.70;;;23.20;99.90;;;;;;12566284;28;19928;-86
2021/08/14 10:28:52;;;;;;;7.85;2.97;;;23.60;99.90;;;;;;12548227;28;20147;-85
2021/08/14 10:35:14;;;;;;;10.35;2.88;;;23.70;99.90;;;;;;12550671;28;20136;-84
2021/08/14 10:41:17;;;;;;;7.25;2.63;;;23.70;99.90;;;;;;12565067;28;20676;-86
2021/08/14 10:47:31;;;;;;;14.07;3.70;;;23.90;99.90;;;;;;12544623;28;20152;-85
2021/08/14 10:53:43;;;;;;;6.85;2.70;;;24.20;99.90;;;;;;12560706;28;20158;-85
2021/08/14 10:59:48;;;;;;;9.05;3.47;;;24.30;99.90;;;;;;12545702;28;20504;-86
2021/08/14 11:05:50;;;;;;;10.55;3.63;;;24.30;99.90;;;;;;12541290;28;20068;-85
2021/08/14 11:11:59;;;;;;;7.55;2.90;;;24.50;99.90;;;;;;12538122;28;20131;-86
2021/08/14 11:18:02;;;;;;;9.07;2.90;;;24.60;99.90;;;;;;12540749;28;20087;-85
2021/08/14 11:24:04;;;;;;;12.10;2.70;;;25.00;99.90;;;;;;12544153;28;20528;-86
2021/08/14 11:30:08;;;;;;;7.78;2.50;;;25.30;99.90;;;;;;12523951;28;20057;-85
2021/08/14 11:36:10;;;;;;;6.60;2.60;;;25.30;99.90;;;;;;12530602;28;20057;-86
2021/08/14 11:42:13;;;;;;;9.40;2.60;;;25.30;99.90;;;;;;12521335;28;20066;-86
2021/08/14 11:48:17;;;;;;;7.80;2.57;;;25.50;99.90;;;;;;12517055;28;20052;-85
2021/08/14 11:54:29;;;;;;;8.90;2.92;;;25.70;99.90;;;;;;12524366;28;20341;-85
2021/08/14 12:00:36;;;;;;;8.05;2.47;;;25.50;99.90;;;;;;12524512;28;20078;-86
2021/08/14 12:06:38;;;;;;;6.30;2.20;;;25.80;99.90;;;;;;12547126;28;20036;-86
2021/08/14 12:12:54;;;;;;;9.38;3.10;;;26.10;99.90;;;;;;12545188;28;20076;-84
2021/08/14 12:18:57;;;;;;;12.40;2.60;;;26.10;99.90;;;;;;12544387;28;20945;-85
2021/08/14 12:25:18;;;;;;;8.48;3.08;;;26.10;99.90;;;;;;12543905;28;20143;-85
2021/08/14 12:31:21;;;;;;;9.48;2.70;;;26.10;99.90;;;;;;12547236;28;20139;-87
2021/08/14 12:37:22;;;;;;;11.45;2.97;;;26.40;99.90;;;;;;12547761;28;20072;-86
2021/08/14 12:43:24;;;;;;;7.13;2.58;;;26.30;99.90;;;;;;12566564;28;20033;-86
2021/08/14 12:49:26;;;;;;;11.32;2.67;;;26.20;99.90;;;;;;12559651;28;20040;-85
2021/08/14 12:55:48;;;;;;;7.25;2.72;;;26.20;99.90;;;;;;12567604;28;20071;-86
2021/08/14 13:01:55;;;;;;;7.67;3.10;;;26.60;99.90;;;;;;12560085;28;20049;-85
2021/08/14 13:07:59;;;;;;;11.15;2.95;;;27.00;99.90;;;;;;12548844;28;20054;-85
2021/08/14 13:14:01;;;;;;;7.13;2.15;;;26.90;99.90;;;;;;12572860;28;20053;-86
2021/08/14 13:20:03;;;;;;;7.57;3.33;;;26.90;99.90;;;;;;12569627;28;20091;-85
2021/08/14 13:26:05;;;;;;;20.30;9.60;;;27.00;99.90;;;;;;12541488;28;20049;-84
2021/08/14 13:32:07;;;;;;;10.00;2.85;;;26.90;99.90;;;;;;12536685;28;20298;-86
2021/08/14 13:38:09;;;;;;;6.43;2.85;;;26.90;99.90;;;;;;12538339;28;20049;-85
2021/08/14 13:44:11;;;;;;;7.32;2.67;;;26.90;99.90;;;;;;12556093;28;20045;-87
2021/08/14 13:50:15;;;;;;;9.00;2.42;;;27.00;99.90;;;;;;12545447;28;20080;-86
2021/08/14 13:56:16;;;;;;;7.15;2.70;;;27.10;99.90;;;;;;12540287;28;20045;-85
2021/08/14 14:02:18;;;;;;;7.15;2.55;;;27.30;99.90;;;;;;12546605;28;20045;-87
2021/08/14 14:08:20;;;;;;;6.73;2.20;;;27.10;99.90;;;;;;12562263;28;20064;-84
2021/08/14 14:14:22;;;;;;;8.52;2.47;;;27.00;99.90;;;;;;12544137;28;20383;-86
2021/08/14 14:20:24;;;;;;;6.73;2.53;;;27.10;99.90;;;;;;12553651;28;20067;-85
2021/08/14 14:26:26;;;;;;;10.63;2.80;;;27.30;99.90;;;;;;12557724;28;20080;-85
2021/08/14 14:32:28;;;;;;;8.07;2.37;;;27.60;99.90;;;;;;12559103;28;20141;-85
2021/08/14 14:38:30;;;;;;;4.60;2.30;;;27.20;99.90;;;;;;12547885;28;20041;-85
2021/08/14 14:44:32;;;;;;;6.32;2.97;;;27.40;99.90;;;;;;12549578;28;20057;-85
2021/08/14 14:50:35;;;;;;;6.18;2.80;;;27.10;99.90;;;;;;12539082;28;20137;-84
2021/08/14 14:56:37;;;;;;;6.60;1.92;;;26.90;99.90;;;;;;12547550;28;20060;-85
2021/08/14 15:02:39;;;;;;;7.85;2.35;;;27.10;99.90;;;;;;12541954;28;20045;-88
2021/08/14 15:08:41;;;;;;;4.47;2.00;;;27.10;99.90;;;;;;12539671;28;20898;-84
2021/08/14 15:14:43;;;;;;;7.97;2.20;;;27.00;99.90;;;;;;12547612;28;20484;-84
2021/08/14 15:20:45;;;;;;;5.75;1.85;;;27.00;99.90;;;;;;12541116;28;20052;-85
2021/08/14 15:26:47;;;;;;;5.65;1.90;;;27.00;99.90;;;;;;12558468;28;20120;-85
2021/08/14 15:32:49;;;;;;;6.13;2.13;;;27.10;99.90;;;;;;12543695;28;20098;-85
2021/08/14 15:38:51;;;;;;;5.22;2.22;;;26.90;99.90;;;;;;12543296;28;20064;-85
2021/08/14 15:44:53;;;;;;;5.43;2.03;;;27.10;99.90;;;;;;12544715;28;20130;-84
2021/08/14 15:50:55;;;;;;;5.70;2.17;;;27.20;99.90;;;;;;12539863;28;20044;-84
2021/08/14 15:56:57;;;;;;;5.05;2.00;;;27.10;99.90;;;;;;12551975;28;20394;-85
2021/08/14 16:02:58;;;;;;;8.30;2.15;;;27.00;99.90;;;;;;12542718;28;20187;-86
2021/08/14 16:09:02;;;;;;;8.18;2.00;;;27.20;99.90;;;;;;12566441;28;20056;-85
2021/08/14 16:15:05;;;;;;;7.40;1.88;;;27.10;99.90;;;;;;12540536;28;20091;-85
2021/08/14 16:21:10;;;;;;;5.68;2.25;;;26.60;99.90;;;;;;12526552;28;20557;-84
2021/08/14 16:27:12;;;;;;;6.15;1.83;;;26.30;99.90;;;;;;12535349;28;20075;-84
2021/08/14 16:33:16;;;;;;;5.05;2.08;;;26.50;99.90;;;;;;12535413;28;20126;-85
2021/08/14 16:39:18;;;;;;;7.85;2.80;;;26.40;99.90;;;;;;12555674;28;20121;-86
2021/08/14 16:45:20;;;;;;;8.65;2.50;;;26.40;99.90;;;;;;12541265;28;20052;-85
2021/08/14 16:51:22;;;;;;;9.45;2.28;;;26.50;99.90;;;;;;12532205;28;20394;-85
2021/08/14 16:57:24;;;;;;;7.03;2.53;;;26.60;99.90;;;;;;12546192;28;20044;-85
2021/08/14 17:03:25;;;;;;;5.30;2.28;;;26.40;99.90;;;;;;12533647;28;20110;-85
2021/08/14 17:09:27;;;;;;;7.15;2.70;;;26.30;99.90;;;;;;12540663;28;20067;-84
2021/08/14 17:15:29;;;;;;;7.32;2.70;;;25.90;99.90;;;;;;12543835;28;20117;-85
2021/08/14 17:21:31;;;;;;;7.45;2.55;;;25.90;99.90;;;;;;12538171;28;20044;-85
2021/08/14 17:27:33;;;;;;;6.83;2.47;;;25.50;99.90;;;;;;12542528;28;20401;-84
2021/08/14 17:33:35;;;;;;;6.60;2.58;;;25.30;99.90;;;;;;12548132;28;20056;-84
2021/08/14 17:39:37;;;;;;;6.45;2.55;;;25.10;99.90;;;;;;12545969;28;20086;-84
2021/08/14 17:45:39;;;;;;;8.95;2.45;;;25.00;99.90;;;;;;12552663;28;20182;-85
2021/08/14 17:51:41;;;;;;;7.00;2.20;;;24.70;99.90;;;;;;12552980;28;20062;-84
2021/08/14 17:57:43;;;;;;;6.75;2.33;;;24.60;99.90;;;;;;12546627;28;20063;-84
2021/08/14 18:03:45;;;;;;;11.68;3.35;;;24.10;99.90;;;;;;12546383;28;20049;-85
2021/08/14 18:09:49;;;;;;;9.43;2.75;;;23.80;99.90;;;;;;12547509;28;20580;-84
2021/08/14 18:15:50;;;;;;;8.63;2.75;;;23.60;99.90;;;;;;12551353;28;20072;-85
2021/08/14 18:21:52;;;;;;;9.35;3.10;;;23.40;99.90;;;;;;12552994;28;20048;-85
2021/08/14 18:27:57;;;;;;;9.55;3.20;;;23.10;99.90;;;;;;12557264;28;20040;-84
2021/08/14 18:33:59;;;;;;;9.18;3.20;;;22.90;99.90;;;;;;12557178;28;20076;-86
2021/08/14 18:40:04;;;;;;;7.85;3.17;;;22.80;99.90;;;;;;12559346;28;20065;-83
2021/08/14 18:46:06;;;;;;;10.23;3.33;;;22.60;99.90;;;;;;12554911;28;20045;-84
2021/08/14 18:52:08;;;;;;;10.70;4.03;;;22.50;99.90;;;;;;12561831;28;20131;-84
2021/08/14 18:58:10;;;;;;;9.77;3.92;;;22.20;99.90;;;;;;12556078;28;20531;-85
2021/08/14 19:04:12;;;;;;;11.38;3.50;;;22.20;99.90;;;;;;12556975;28;20203;-84
2021/08/14 19:10:15;;;;;;;7.68;3.50;;;22.00;99.90;;;;;;12544087;28;20053;-84
2021/08/14 19:16:16;;;;;;;8.57;3.60;;;21.90;99.90;;;;;;12545790;28;20036;-84
2021/08/14 19:22:22;;;;;;;9.35;3.55;;;21.70;99.90;;;;;;12540364;28;20291;-84
2021/08/14 19:28:23;;;;;;;13.93;4.15;;;21.20;99.90;;;;;;12534328;28;20065;-83
2021/08/14 19:34:25;;;;;;;10.50;4.28;;;20.90;99.90;;;;;;12523821;28;20045;-83
2021/08/14 19:40:27;;;;;;;10.60;3.75;;;20.80;99.90;;;;;;12525698;28;20120;-83
2021/08/14 19:46:29;;;;;;;7.78;3.67;;;20.60;99.90;;;;;;12526620;28;20063;-83
2021/08/14 19:52:31;;;;;;;12.05;4.47;;;20.50;99.90;;;;;;12550796;28;20045;-84
2021/08/14 19:58:39;;;;;;;10.75;3.58;;;20.40;99.90;;;;;;12556556;28;20049;-83
2021/08/14 20:04:40;;;;;;;12.32;4.45;;;20.20;99.90;;;;;;12515476;28;20127;-83
2021/08/14 20:10:43;;;;;;;9.77;4.00;;;20.20;99.90;;;;;;12542558;28;20056;-84
2021/08/14 20:16:45;;;;;;;9.60;4.43;;;20.30;99.90;;;;;;12571751;28;20040;-84
2021/08/14 20:22:47;;;;;;;12.93;4.70;;;20.20;99.90;;;;;;12550509;28;20294;-83
2021/08/14 20:28:50;;;;;;;11.15;4.65;;;20.40;99.90;;;;;;12538798;28;20057;-82
2021/08/14 20:34:52;;;;;;;11.48;4.65;;;20.30;99.90;;;;;;12534868;28;20447;-84
2021/08/14 20:40:53;;;;;;;13.27;4.70;;;20.00;99.90;;;;;;12529604;28;20067;-83
2021/08/14 20:46:55;;;;;;;14.15;5.53;;;20.00;99.90;;;;;;12522485;28;20486;-82
2021/08/14 20:52:57;;;;;;;12.85;4.55;;;19.80;99.90;;;;;;12512744;28;20127;-83
2021/08/14 20:59:01;;;;;;;9.10;4.30;;;19.90;99.90;;;;;;12524192;28;20604;-83
2021/08/14 21:05:03;;;;;;;11.60;4.93;;;20.00;99.90;;;;;;12532773;28;20665;-82
2021/08/14 21:11:06;;;;;;;11.10;5.30;;;20.10;99.90;;;;;;12541305;28;20045;-83
2021/08/14 21:17:25;;;;;;;12.18;5.80;;;20.20;99.90;;;;;;12527598;28;20041;-83
2021/08/14 21:23:27;;;;;;;11.82;5.43;;;20.20;99.90;;;;;;12511836;28;20037;-83
2021/08/14 21:29:29;;;;;;;12.05;5.72;;;19.80;99.90;;;;;;12524160;28;20057;-83
2021/08/14 21:35:31;;;;;;;15.95;6.10;;;19.80;99.90;;;;;;12528691;28;20456;-83
2021/08/14 21:41:32;;;;;;;13.18;5.95;;;19.80;99.90;;;;;;12524621;28;20045;-83
2021/08/14 21:47:34;;;;;;;17.50;6.05;;;19.80;99.90;;;;;;12524883;28;20049;-83
2021/08/14 21:53:36;;;;;;;17.30;6.13;;;19.80;99.90;;;;;;12525126;28;20048;-82
2021/08/14 21:59:38;;;;;;;17.08;6.80;;;19.70;99.90;;;;;;12524570;28;20052;-83
2021/08/14 22:05:44;;;;;;;14.60;6.38;;;19.50;99.90;;;;;;12521314;28;20143;-83
2021/08/14 22:11:49;;;;;;;19.23;7.03;;;19.50;99.90;;;;;;12526904;28;21379;-82
2021/08/14 22:17:52;;;;;;;13.57;6.32;;;19.40;99.90;;;;;;12513175;28;20111;-82
2021/08/14 22:23:57;;;;;;;13.75;5.43;;;19.40;99.90;;;;;;12519600;28;20036;-83
2021/08/14 22:29:59;;;;;;;12.55;5.55;;;19.40;99.90;;;;;;12527427;28;20140;-82
2021/08/14 22:36:01;;;;;;;12.95;6.10;;;19.20;99.90;;;;;;12527627;28;20049;-82
2021/08/14 22:42:03;;;;;;;10.02;5.53;;;19.00;99.90;;;;;;12519206;28;20048;-84
2021/08/14 22:48:05;;;;;;;16.20;6.10;;;18.60;99.90;;;;;;12507629;28;20250;-82
2021/08/14 22:54:07;;;;;;;12.32;5.85;;;17.70;99.90;;;;;;12526339;28;20048;-82
2021/08/14 23:00:18;;;;;;;14.35;5.50;;;17.70;99.90;;;;;;12524008;28;20252;-82
2021/08/14 23:06:20;;;;;;;13.27;5.70;;;18.00;99.90;;;;;;12522372;28;20537;-83
2021/08/14 23:12:22;;;;;;;12.70;6.40;;;18.20;99.90;;;;;;12521625;28;20063;-82
2021/08/14 23:18:24;;;;;;;14.77;5.57;;;18.00;99.90;;;;;;12520337;28;20049;-82
2021/08/14 23:24:26;;;;;;;13.13;6.35;;;17.80;99.90;;;;;;12514273;28;20578;-83
2021/08/14 23:30:33;;;;;;;15.25;5.15;;;17.80;99.90;;;;;;12521568;28;20466;-83
2021/08/14 23:36:35;;;;;;;13.98;5.32;;;17.70;99.90;;;;;;12518377;28;20045;-82
2021/08/14 23:42:37;;;;;;;14.60;5.57;;;17.80;99.90;;;;;;12509650;28;20040;-82
2021/08/14 23:48:39;;;;;;;14.43;6.07;;;17.40;99.90;;;;;;12520502;28;20068;-82
2021/08/14 23:54:41;;;;;;;16.40;5.65;;;17.20;99.90;;;;;;12517286;28;20052;-82
